X  Tanca Dades meteorològiques de l'aviació METAR     LIML Milano Linate Airport
Temperatura
28°C Temperatura
21°C Rosada
66% Humitat



Vent
5 KM/H
3 MPH
1 M/S
3 NUS



290°
ONO
Condicions actuals

Parcialment ennuvolat Parcialment ennuvolat
Pressió 1012.92 (hPa) - 29.91 (inHg)
Visibilitat 6.2 (milla) - 10 (km)
Aeroport
Codi aeroport LIML

Ubicació: Milano Linate Airport
Distància: 100 (km)

Metar:
LIML 131850Z 29003KT 250V320 9999 FEW040 SCT080 28/21 Q1013 NOSIG

Temps: 13-08-2020 20:50 CEST